Observations for JERSEY AIRPORT, United Kingdom (EGJJ)

EGJJ 200750Z 22004KT 1400 R26/1800 -DZ BR SCT000 BKN001 09/09 Q1034 
EGJJ 200720Z 22005KT 190V250 1400 R26/P2000 -DZ BR FEW000 BKN001 09/09 Q1033
EGJJ 200650Z 24006KT 2500 1200N R26/1900 -DZ BR FEW000 SCT001 BKN002 09/09 Q1033
EGJJ 200620Z 23004KT 200V270 0400 R26/0500 -DZ FG FEW000 SCT001 BKN002 09/09 Q1033  
EGJJ 200550Z 23004KT 1500 0700W R26/P2000 -DZ FG FEW000 SCT001 BKN002 08/08 Q1033   
EGJJ 200520Z AUTO 23005KT 0500 0300 FEW005/// SCT008/// BKN010/// 08/08 Q1032 REDZ  
EGJJ 200450Z AUTO 24007KT 9999 BKN002/// OVC004/// 08/08 Q1032 REDZ 
EGJJ 200420Z AUTO 23004KT 9999 SCT006/// SCT008/// OVC020/// 08/08 Q1032
EGJJ 200350Z AUTO 22004KT 9999 BKN020/// OVC023/// 07/07 Q1032  
EGJJ 200320Z AUTO 22004KT 9999 FEW020/// 07/07 Q1032
EGJJ 200250Z AUTO 23003KT 5000 HZ NCD 07/07 Q1032   
EGJJ 200220Z AUTO 22005KT 9999 NCD 07/07 Q1032  
EGJJ 200150Z AUTO 23006KT 9999 NCD 07/07 Q1032  
EGJJ 200120Z AUTO 23006KT 5000 NCD 07/07 Q1032  
EGJJ 200050Z AUTO 23006KT 9999 NCD 07/07 Q1032  
EGJJ 200020Z AUTO 23006KT 9999 NCD 07/07 Q1032  
EGJJ 192350Z AUTO 24006KT 9999 NCD 07/07 Q1033  
EGJJ 192320Z AUTO 24007KT 8000 NCD 08/08 Q1032  
EGJJ 192250Z AUTO 24006KT 9999 HZ NCD 08/07 Q1032   
EGJJ 192220Z AUTO 22006KT 9999 NCD 07/07 Q1032  
EGJJ 192150Z AUTO 22006KT 9999 HZ NCD 07/07 Q1032   
EGJJ 192120Z AUTO 24005KT 7000 HZ NCD 08/07 Q1032   
EGJJ 192050Z AUTO 23006KT 9999 NCD 08/07 Q1032  
EGJJ 192020Z 24005KT 9999 FEW006 08/08 Q1031
EGJJ 191950Z 23004KT 9999 FEW006 08/08 Q1031
EGJJ 191920Z 25006KT 9999 FEW004 08/07 Q1031
EGJJ 191850Z 25006KT 9999 FEW003 08/08 Q1031
EGJJ 191820Z 23005KT 9999 FEW003 09/08 Q1030
EGJJ 191750Z 25006KT 9999 FEW002 SCT005 10/09 Q1030 
EGJJ 191720Z 25008KT 9999 FEW003 BKN006 10/09 Q1030 
EGJJ 191650Z 24007KT 9999 BKN004 10/09 Q1030
EGJJ 191620Z 23007KT 9999 VCSH FEW003 BKN004 09/09 Q1030
EGJJ 191550Z 23007KT 9999 VCSH FEW002 BKN005 09/08 Q1030
EGJJ 191520Z 24009KT 9999 VCSH FEW005 BKN008 09/08 Q1030
EGJJ 191450Z 22007KT 190V250 9999 FEW007 BKN009 10/08 Q1030 
EGJJ 191420Z 21008KT 9999 FEW008 BKN013 10/08 Q1029 
EGJJ 191350Z 22008KT 9999 FEW005 BKN007 10/08 Q1029 
EGJJ 191320Z 19007KT 150V230 9999 FEW007 BKN009 10/08 Q1030 
EGJJ 191250Z AUTO 20007KT 9999 SCT008/// SCT011/// BKN014/// 10/08 Q1030
EGJJ 191220Z 22009KT 9999 VCSH FEW006 SCT010 BKN022 10/08 Q1030 
EGJJ 191150Z 20007KT 170V230 9999 VCSH FEW006 SCT012 BKN025 10/08 Q1030 
EGJJ 191120Z 23005KT 190V260 9999 VCSH FEW006 SCT013 BKN020 10/08 Q1029 
EGJJ 191050Z 22006KT 9999 FEW007 SCT020 BKN025 10/07 Q1029  
EGJJ 191020Z 24006KT 200V260 9999 FEW007 SCT020 BKN026 10/08 Q1029  
EGJJ 190950Z 23003KT 180V250 9999 FEW007 SCT024 BKN030 10/07 Q1029  
EGJJ 190920Z 25004KT 220V280 9999 FEW007 BKN032 10/06 Q1029 
EGJJ 190850Z 26003KT 230V290 9999 FEW007 BKN032 10/06 Q1029 
EGJJ 190820Z VRB01KT 9999 FEW007 BKN032 09/06 Q1028 
EGJJ 190750Z 04001KT 9999 FEW007 BKN032 09/06 Q1028 
EGJJ 190720Z VRB02KT 9999 FEW007 BKN032 08/05 Q1028